Terminal Aerodrome Forecast
Issued by NWS

Home | Current Version | Previous Version | Text Only | Print | Product List | Glossary On
Versions: 1 2 3 4 5 6 7 8 9 10 11 12 13 14
447
FTUS46 KLOX 281120
TAFOXR
TAF
KOXR 281120Z 2812/0112 04006KT P6SM SCT050
     FM281600 05012KT P6SM SKC
     FM282100 26012KT P6SM SKC
     FM010300 VRB03KT P6SM SKC
     FM010900 06008KT P6SM SKC=

USA.gov is the U.S. government's official web portal to all federal, state and local government web resources and services.